sensor_id;sensor_type;location;lat;lon;timestamp;P1;durP1;ratioP1;P2;durP2;ratioP2
54795;SDS011;40693;43.884;20.340;2023-12-28T00:00:08;139.97;;;81.53;;
54795;SDS011;40693;43.884;20.340;2023-12-28T00:02:34;120.37;;;69.00;;
54795;SDS011;40693;43.884;20.340;2023-12-28T00:05:00;152.27;;;86.10;;
54795;SDS011;40693;43.884;20.340;2023-12-28T00:07:25;159.37;;;93.20;;
54795;SDS011;40693;43.884;20.340;2023-12-28T00:09:51;159.77;;;88.97;;
54795;SDS011;40693;43.884;20.340;2023-12-28T00:12:17;146.03;;;81.47;;
54795;SDS011;40693;43.884;20.340;2023-12-28T00:14:43;120.63;;;70.37;;
54795;SDS011;40693;43.884;20.340;2023-12-28T00:17:08;145.03;;;83.20;;
54795;SDS011;40693;43.884;20.340;2023-12-28T00:19:34;147.25;;;85.43;;
54795;SDS011;40693;43.884;20.340;2023-12-28T00:22:00;155.17;;;87.53;;
54795;SDS011;40693;43.884;20.340;2023-12-28T00:24:26;165.73;;;92.80;;
54795;SDS011;40693;43.884;20.340;2023-12-28T00:26:51;169.30;;;98.33;;
54795;SDS011;40693;43.884;20.340;2023-12-28T00:29:17;159.83;;;97.07;;
54795;SDS011;40693;43.884;20.340;2023-12-28T00:31:43;161.27;;;92.07;;
54795;SDS011;40693;43.884;20.340;2023-12-28T00:34:09;132.63;;;75.87;;
54795;SDS011;40693;43.884;20.340;2023-12-28T00:36:34;137.90;;;83.53;;
54795;SDS011;40693;43.884;20.340;2023-12-28T00:39:00;140.50;;;78.60;;
54795;SDS011;40693;43.884;20.340;2023-12-28T00:41:26;203.53;;;107.73;;
54795;SDS011;40693;43.884;20.340;2023-12-28T00:43:51;156.47;;;91.03;;
54795;SDS011;40693;43.884;20.340;2023-12-28T00:46:17;185.70;;;105.10;;
54795;SDS011;40693;43.884;20.340;2023-12-28T00:48:43;133.37;;;73.60;;
54795;SDS011;40693;43.884;20.340;2023-12-28T00:51:09;142.30;;;80.00;;
54795;SDS011;40693;43.884;20.340;2023-12-28T00:53:34;159.83;;;89.47;;
54795;SDS011;40693;43.884;20.340;2023-12-28T00:56:00;181.33;;;97.03;;
54795;SDS011;40693;43.884;20.340;2023-12-28T00:58:26;160.40;;;92.87;;
54795;SDS011;40693;43.884;20.340;2023-12-28T01:00:52;169.50;;;95.53;;
54795;SDS011;40693;43.884;20.340;2023-12-28T01:03:20;164.90;;;97.67;;
54795;SDS011;40693;43.884;20.340;2023-12-28T01:05:46;182.80;;;100.93;;
54795;SDS011;40693;43.884;20.340;2023-12-28T01:08:15;169.17;;;95.67;;
54795;SDS011;40693;43.884;20.340;2023-12-28T01:10:42;156.47;;;86.57;;
54795;SDS011;40693;43.884;20.340;2023-12-28T01:13:08;130.00;;;75.13;;
54795;SDS011;40693;43.884;20.340;2023-12-28T01:15:34;132.13;;;74.80;;
54795;SDS011;40693;43.884;20.340;2023-12-28T01:17:59;132.73;;;74.97;;
54795;SDS011;40693;43.884;20.340;2023-12-28T01:20:25;143.77;;;78.93;;
54795;SDS011;40693;43.884;20.340;2023-12-28T01:22:51;149.03;;;84.57;;
54795;SDS011;40693;43.884;20.340;2023-12-28T01:25:17;156.40;;;85.13;;
54795;SDS011;40693;43.884;20.340;2023-12-28T01:27:42;144.00;;;83.57;;
54795;SDS011;40693;43.884;20.340;2023-12-28T01:30:08;168.27;;;92.20;;
54795;SDS011;40693;43.884;20.340;2023-12-28T01:32:34;155.30;;;88.63;;
54795;SDS011;40693;43.884;20.340;2023-12-28T01:35:00;127.27;;;65.80;;
54795;SDS011;40693;43.884;20.340;2023-12-28T01:37:27;104.20;;;59.90;;
54795;SDS011;40693;43.884;20.340;2023-12-28T01:39:55;105.80;;;58.37;;
54795;SDS011;40693;43.884;20.340;2023-12-28T01:42:21;103.37;;;59.97;;
54795;SDS011;40693;43.884;20.340;2023-12-28T01:44:47;112.93;;;64.27;;
54795;SDS011;40693;43.884;20.340;2023-12-28T01:47:13;123.93;;;69.07;;
54795;SDS011;40693;43.884;20.340;2023-12-28T01:49:39;211.60;;;120.37;;
54795;SDS011;40693;43.884;20.340;2023-12-28T01:52:05;153.47;;;86.07;;
54795;SDS011;40693;43.884;20.340;2023-12-28T01:54:32;123.33;;;67.17;;
54795;SDS011;40693;43.884;20.340;2023-12-28T01:56:59;114.13;;;63.13;;
54795;SDS011;40693;43.884;20.340;2023-12-28T01:59:25;96.73;;;54.87;;
54795;SDS011;40693;43.884;20.340;2023-12-28T02:01:51;68.83;;;39.97;;
54795;SDS011;40693;43.884;20.340;2023-12-28T02:04:17;56.70;;;33.93;;
54795;SDS011;40693;43.884;20.340;2023-12-28T02:06:47;69.90;;;42.70;;
54795;SDS011;40693;43.884;20.340;2023-12-28T02:09:13;61.10;;;35.97;;
54795;SDS011;40693;43.884;20.340;2023-12-28T02:11:39;77.80;;;42.77;;
54795;SDS011;40693;43.884;20.340;2023-12-28T02:14:05;72.57;;;40.70;;
54795;SDS011;40693;43.884;20.340;2023-12-28T02:16:36;70.87;;;42.20;;
54795;SDS011;40693;43.884;20.340;2023-12-28T02:19:14;68.07;;;41.43;;
54795;SDS011;40693;43.884;20.340;2023-12-28T02:21:47;73.20;;;43.00;;
54795;SDS011;40693;43.884;20.340;2023-12-28T02:24:13;83.27;;;46.27;;
54795;SDS011;40693;43.884;20.340;2023-12-28T02:26:39;69.73;;;38.73;;
54795;SDS011;40693;43.884;20.340;2023-12-28T02:29:05;64.90;;;34.83;;
54795;SDS011;40693;43.884;20.340;2023-12-28T02:31:35;50.60;;;31.30;;
54795;SDS011;40693;43.884;20.340;2023-12-28T02:34:06;70.07;;;39.73;;
54795;SDS011;40693;43.884;20.340;2023-12-28T02:36:37;81.83;;;47.90;;
54795;SDS011;40693;43.884;20.340;2023-12-28T02:39:08;84.57;;;46.80;;
54795;SDS011;40693;43.884;20.340;2023-12-28T02:41:36;95.93;;;56.07;;
54795;SDS011;40693;43.884;20.340;2023-12-28T02:44:03;107.63;;;59.00;;
54795;SDS011;40693;43.884;20.340;2023-12-28T02:46:29;110.80;;;59.23;;
54795;SDS011;40693;43.884;20.340;2023-12-28T02:48:54;111.30;;;63.03;;
54795;SDS011;40693;43.884;20.340;2023-12-28T02:51:22;88.93;;;48.10;;
54795;SDS011;40693;43.884;20.340;2023-12-28T02:53:48;99.93;;;54.20;;
54795;SDS011;40693;43.884;20.340;2023-12-28T02:56:13;77.60;;;42.10;;
54795;SDS011;40693;43.884;20.340;2023-12-28T02:58:39;77.27;;;41.93;;
54795;SDS011;40693;43.884;20.340;2023-12-28T03:01:05;71.77;;;42.43;;
54795;SDS011;40693;43.884;20.340;2023-12-28T03:03:31;71.33;;;41.77;;
54795;SDS011;40693;43.884;20.340;2023-12-28T03:05:56;84.53;;;47.37;;
54795;SDS011;40693;43.884;20.340;2023-12-28T03:08:22;69.13;;;44.73;;
54795;SDS011;40693;43.884;20.340;2023-12-28T03:10:48;76.83;;;44.57;;
54795;SDS011;40693;43.884;20.340;2023-12-28T03:13:14;71.53;;;43.40;;
54795;SDS011;40693;43.884;20.340;2023-12-28T03:15:39;97.23;;;53.80;;
54795;SDS011;40693;43.884;20.340;2023-12-28T03:18:05;83.07;;;49.87;;
54795;SDS011;40693;43.884;20.340;2023-12-28T03:20:31;81.37;;;47.70;;
54795;SDS011;40693;43.884;20.340;2023-12-28T03:22:57;92.90;;;49.17;;
54795;SDS011;40693;43.884;20.340;2023-12-28T03:25:22;106.47;;;55.50;;
54795;SDS011;40693;43.884;20.340;2023-12-28T03:27:48;109.87;;;60.13;;
54795;SDS011;40693;43.884;20.340;2023-12-28T03:30:14;110.27;;;57.73;;
54795;SDS011;40693;43.884;20.340;2023-12-28T03:32:40;109.60;;;59.70;;
54795;SDS011;40693;43.884;20.340;2023-12-28T03:35:05;89.27;;;46.03;;
54795;SDS011;40693;43.884;20.340;2023-12-28T03:37:32;79.73;;;45.77;;
54795;SDS011;40693;43.884;20.340;2023-12-28T03:39:58;71.80;;;40.83;;
54795;SDS011;40693;43.884;20.340;2023-12-28T03:42:24;65.70;;;38.57;;
54795;SDS011;40693;43.884;20.340;2023-12-28T03:44:49;69.63;;;41.17;;
54795;SDS011;40693;43.884;20.340;2023-12-28T03:47:15;69.67;;;38.50;;
54795;SDS011;40693;43.884;20.340;2023-12-28T03:49:41;116.13;;;71.47;;
54795;SDS011;40693;43.884;20.340;2023-12-28T03:52:07;67.50;;;39.27;;
54795;SDS011;40693;43.884;20.340;2023-12-28T03:54:32;58.47;;;36.60;;
54795;SDS011;40693;43.884;20.340;2023-12-28T03:56:58;64.63;;;39.10;;
54795;SDS011;40693;43.884;20.340;2023-12-28T03:59:24;67.63;;;43.53;;
54795;SDS011;40693;43.884;20.340;2023-12-28T04:01:50;54.13;;;32.93;;
54795;SDS011;40693;43.884;20.340;2023-12-28T04:04:15;54.03;;;29.47;;
54795;SDS011;40693;43.884;20.340;2023-12-28T04:06:41;47.00;;;30.33;;
54795;SDS011;40693;43.884;20.340;2023-12-28T04:09:10;58.67;;;34.23;;
54795;SDS011;40693;43.884;20.340;2023-12-28T04:11:37;55.97;;;33.00;;
54795;SDS011;40693;43.884;20.340;2023-12-28T04:14:03;52.37;;;29.87;;
54795;SDS011;40693;43.884;20.340;2023-12-28T04:16:28;52.83;;;31.33;;
54795;SDS011;40693;43.884;20.340;2023-12-28T04:18:54;59.00;;;31.77;;
54795;SDS011;40693;43.884;20.340;2023-12-28T04:21:20;65.47;;;34.67;;
54795;SDS011;40693;43.884;20.340;2023-12-28T04:23:46;68.13;;;36.87;;
54795;SDS011;40693;43.884;20.340;2023-12-28T04:26:12;63.33;;;36.50;;
54795;SDS011;40693;43.884;20.340;2023-12-28T04:28:38;58.67;;;37.00;;
54795;SDS011;40693;43.884;20.340;2023-12-28T04:31:05;69.30;;;38.63;;
54795;SDS011;40693;43.884;20.340;2023-12-28T04:33:31;63.63;;;37.43;;
54795;SDS011;40693;43.884;20.340;2023-12-28T04:36:00;75.70;;;41.77;;
54795;SDS011;40693;43.884;20.340;2023-12-28T04:38:28;65.17;;;37.87;;
54795;SDS011;40693;43.884;20.340;2023-12-28T04:40:54;55.47;;;33.93;;
54795;SDS011;40693;43.884;20.340;2023-12-28T04:43:20;57.60;;;35.07;;
54795;SDS011;40693;43.884;20.340;2023-12-28T04:45:45;66.17;;;35.97;;
54795;SDS011;40693;43.884;20.340;2023-12-28T04:48:12;69.80;;;39.90;;
54795;SDS011;40693;43.884;20.340;2023-12-28T04:50:37;70.07;;;41.80;;
54795;SDS011;40693;43.884;20.340;2023-12-28T04:53:03;69.47;;;42.27;;
54795;SDS011;40693;43.884;20.340;2023-12-28T04:55:29;67.73;;;36.27;;
54795;SDS011;40693;43.884;20.340;2023-12-28T04:57:55;62.07;;;36.83;;
54795;SDS011;40693;43.884;20.340;2023-12-28T05:00:20;62.57;;;36.33;;
54795;SDS011;40693;43.884;20.340;2023-12-28T05:02:46;71.10;;;39.37;;
54795;SDS011;40693;43.884;20.340;2023-12-28T05:05:12;71.30;;;41.10;;
54795;SDS011;40693;43.884;20.340;2023-12-28T05:07:38;72.37;;;38.90;;
54795;SDS011;40693;43.884;20.340;2023-12-28T05:10:04;63.37;;;36.27;;
54795;SDS011;40693;43.884;20.340;2023-12-28T05:12:30;62.60;;;38.17;;
54795;SDS011;40693;43.884;20.340;2023-12-28T05:14:56;66.03;;;36.50;;
54795;SDS011;40693;43.884;20.340;2023-12-28T05:17:22;59.70;;;36.33;;
54795;SDS011;40693;43.884;20.340;2023-12-28T05:19:48;67.33;;;38.23;;
54795;SDS011;40693;43.884;20.340;2023-12-28T05:22:14;85.73;;;50.40;;
54795;SDS011;40693;43.884;20.340;2023-12-28T05:24:39;98.07;;;56.50;;
54795;SDS011;40693;43.884;20.340;2023-12-28T05:27:05;79.83;;;50.17;;
54795;SDS011;40693;43.884;20.340;2023-12-28T05:29:31;56.10;;;37.43;;
54795;SDS011;40693;43.884;20.340;2023-12-28T05:31:57;62.53;;;37.90;;
54795;SDS011;40693;43.884;20.340;2023-12-28T05:34:22;67.93;;;38.33;;
54795;SDS011;40693;43.884;20.340;2023-12-28T05:36:48;87.20;;;51.07;;
54795;SDS011;40693;43.884;20.340;2023-12-28T05:39:14;81.97;;;48.13;;
54795;SDS011;40693;43.884;20.340;2023-12-28T05:41:40;88.80;;;48.67;;
54795;SDS011;40693;43.884;20.340;2023-12-28T05:44:06;79.50;;;48.77;;
54795;SDS011;40693;43.884;20.340;2023-12-28T05:46:31;114.53;;;65.97;;
54795;SDS011;40693;43.884;20.340;2023-12-28T05:48:57;114.37;;;63.87;;
54795;SDS011;40693;43.884;20.340;2023-12-28T05:51:23;123.13;;;69.83;;
54795;SDS011;40693;43.884;20.340;2023-12-28T05:53:49;132.17;;;68.43;;
54795;SDS011;40693;43.884;20.340;2023-12-28T05:56:15;171.67;;;98.33;;
54795;SDS011;40693;43.884;20.340;2023-12-28T05:58:40;196.50;;;107.73;;
54795;SDS011;40693;43.884;20.340;2023-12-28T06:01:06;195.80;;;105.67;;
54795;SDS011;40693;43.884;20.340;2023-12-28T06:03:32;173.03;;;97.07;;
54795;SDS011;40693;43.884;20.340;2023-12-28T06:05:58;210.10;;;123.70;;
54795;SDS011;40693;43.884;20.340;2023-12-28T06:08:23;203.07;;;122.67;;
54795;SDS011;40693;43.884;20.340;2023-12-28T06:10:49;161.27;;;93.20;;
54795;SDS011;40693;43.884;20.340;2023-12-28T06:13:15;127.17;;;75.53;;
54795;SDS011;40693;43.884;20.340;2023-12-28T06:15:41;105.27;;;61.87;;
54795;SDS011;40693;43.884;20.340;2023-12-28T06:18:07;92.23;;;54.37;;
54795;SDS011;40693;43.884;20.340;2023-12-28T06:20:32;101.63;;;59.33;;
54795;SDS011;40693;43.884;20.340;2023-12-28T06:22:58;100.20;;;58.40;;
54795;SDS011;40693;43.884;20.340;2023-12-28T06:25:24;105.70;;;60.10;;
54795;SDS011;40693;43.884;20.340;2023-12-28T06:27:50;92.93;;;57.17;;
54795;SDS011;40693;43.884;20.340;2023-12-28T06:30:16;107.00;;;56.80;;
54795;SDS011;40693;43.884;20.340;2023-12-28T06:32:41;108.10;;;62.10;;
54795;SDS011;40693;43.884;20.340;2023-12-28T06:35:07;114.00;;;64.43;;
54795;SDS011;40693;43.884;20.340;2023-12-28T06:37:33;131.37;;;79.30;;
54795;SDS011;40693;43.884;20.340;2023-12-28T06:39:59;143.67;;;83.63;;
54795;SDS011;40693;43.884;20.340;2023-12-28T06:42:25;143.03;;;80.93;;
54795;SDS011;40693;43.884;20.340;2023-12-28T06:44:51;128.20;;;75.73;;
54795;SDS011;40693;43.884;20.340;2023-12-28T06:47:17;140.57;;;84.43;;
54795;SDS011;40693;43.884;20.340;2023-12-28T06:49:43;148.57;;;86.50;;
54795;SDS011;40693;43.884;20.340;2023-12-28T06:52:08;163.20;;;91.97;;
54795;SDS011;40693;43.884;20.340;2023-12-28T06:54:34;170.27;;;95.57;;
54795;SDS011;40693;43.884;20.340;2023-12-28T06:57:00;187.10;;;107.00;;
54795;SDS011;40693;43.884;20.340;2023-12-28T06:59:26;209.50;;;117.40;;
54795;SDS011;40693;43.884;20.340;2023-12-28T07:01:52;237.50;;;127.90;;
54795;SDS011;40693;43.884;20.340;2023-12-28T07:04:17;218.10;;;124.07;;
54795;SDS011;40693;43.884;20.340;2023-12-28T07:06:43;194.73;;;113.63;;
54795;SDS011;40693;43.884;20.340;2023-12-28T07:09:09;257.33;;;144.97;;
54795;SDS011;40693;43.884;20.340;2023-12-28T07:11:35;252.87;;;140.93;;
54795;SDS011;40693;43.884;20.340;2023-12-28T07:14:01;228.93;;;130.27;;
54795;SDS011;40693;43.884;20.340;2023-12-28T07:16:26;231.37;;;137.60;;
54795;SDS011;40693;43.884;20.340;2023-12-28T07:18:53;220.67;;;133.77;;
54795;SDS011;40693;43.884;20.340;2023-12-28T07:21:19;227.43;;;128.37;;
54795;SDS011;40693;43.884;20.340;2023-12-28T07:23:44;211.73;;;130.63;;
54795;SDS011;40693;43.884;20.340;2023-12-28T07:26:14;200.33;;;120.63;;
54795;SDS011;40693;43.884;20.340;2023-12-28T07:28:40;152.10;;;93.03;;
54795;SDS011;40693;43.884;20.340;2023-12-28T07:31:08;112.33;;;68.13;;
54795;SDS011;40693;43.884;20.340;2023-12-28T07:33:34;111.23;;;67.50;;
54795;SDS011;40693;43.884;20.340;2023-12-28T07:36:00;111.00;;;70.97;;
54795;SDS011;40693;43.884;20.340;2023-12-28T07:38:28;139.97;;;82.33;;
54795;SDS011;40693;43.884;20.340;2023-12-28T07:40:53;112.70;;;70.63;;
54795;SDS011;40693;43.884;20.340;2023-12-28T07:43:19;110.47;;;68.73;;
54795;SDS011;40693;43.884;20.340;2023-12-28T07:45:45;112.23;;;67.57;;
54795;SDS011;40693;43.884;20.340;2023-12-28T07:48:11;102.93;;;63.57;;
54795;SDS011;40693;43.884;20.340;2023-12-28T07:50:37;106.77;;;64.40;;
54795;SDS011;40693;43.884;20.340;2023-12-28T07:53:02;109.73;;;69.83;;
54795;SDS011;40693;43.884;20.340;2023-12-28T07:55:28;115.77;;;68.90;;
54795;SDS011;40693;43.884;20.340;2023-12-28T07:57:54;90.60;;;57.83;;
54795;SDS011;40693;43.884;20.340;2023-12-28T08:00:20;93.73;;;59.37;;
54795;SDS011;40693;43.884;20.340;2023-12-28T08:02:45;86.53;;;55.20;;
54795;SDS011;40693;43.884;20.340;2023-12-28T08:05:11;82.50;;;55.97;;
54795;SDS011;40693;43.884;20.340;2023-12-28T08:07:37;88.72;;;56.15;;
54795;SDS011;40693;43.884;20.340;2023-12-28T08:10:03;87.45;;;54.63;;
54795;SDS011;40693;43.884;20.340;2023-12-28T08:12:29;76.53;;;48.72;;
54795;SDS011;40693;43.884;20.340;2023-12-28T08:14:55;82.07;;;49.40;;
54795;SDS011;40693;43.884;20.340;2023-12-28T08:17:21;82.43;;;49.60;;
54795;SDS011;40693;43.884;20.340;2023-12-28T08:19:46;88.68;;;57.10;;
54795;SDS011;40693;43.884;20.340;2023-12-28T08:22:12;89.88;;;54.13;;
54795;SDS011;40693;43.884;20.340;2023-12-28T08:24:38;89.78;;;59.40;;
54795;SDS011;40693;43.884;20.340;2023-12-28T08:27:04;89.03;;;56.40;;
54795;SDS011;40693;43.884;20.340;2023-12-28T08:29:31;89.03;;;54.35;;
54795;SDS011;40693;43.884;20.340;2023-12-28T08:31:57;75.72;;;51.63;;
54795;SDS011;40693;43.884;20.340;2023-12-28T08:34:23;79.05;;;50.95;;
54795;SDS011;40693;43.884;20.340;2023-12-28T08:36:48;84.70;;;56.08;;
54795;SDS011;40693;43.884;20.340;2023-12-28T08:39:14;91.18;;;64.90;;
54795;SDS011;40693;43.884;20.340;2023-12-28T08:41:40;93.07;;;61.35;;
54795;SDS011;40693;43.884;20.340;2023-12-28T08:44:06;91.05;;;56.13;;
54795;SDS011;40693;43.884;20.340;2023-12-28T08:46:32;81.50;;;55.22;;
54795;SDS011;40693;43.884;20.340;2023-12-28T08:49:05;75.38;;;52.13;;
54795;SDS011;40693;43.884;20.340;2023-12-28T08:51:30;135.85;;;99.68;;
54795;SDS011;40693;43.884;20.340;2023-12-28T08:53:56;145.45;;;99.15;;
54795;SDS011;40693;43.884;20.340;2023-12-28T08:56:22;235.80;;;163.00;;
54795;SDS011;40693;43.884;20.340;2023-12-28T08:58:48;237.57;;;155.75;;
54795;SDS011;40693;43.884;20.340;2023-12-28T09:01:23;260.85;;;169.30;;
54795;SDS011;40693;43.884;20.340;2023-12-28T09:03:52;77.35;;;56.25;;
54795;SDS011;40693;43.884;20.340;2023-12-28T09:06:19;92.45;;;62.90;;
54795;SDS011;40693;43.884;20.340;2023-12-28T09:08:46;89.85;;;63.22;;
54795;SDS011;40693;43.884;20.340;2023-12-28T09:11:14;95.32;;;62.35;;
54795;SDS011;40693;43.884;20.340;2023-12-28T09:13:40;81.75;;;56.85;;
54795;SDS011;40693;43.884;20.340;2023-12-28T09:16:10;81.70;;;61.35;;
54795;SDS011;40693;43.884;20.340;2023-12-28T09:18:38;104.43;;;79.68;;
54795;SDS011;40693;43.884;20.340;2023-12-28T09:21:04;103.90;;;74.50;;
54795;SDS011;40693;43.884;20.340;2023-12-28T09:23:32;140.77;;;102.63;;
54795;SDS011;40693;43.884;20.340;2023-12-28T09:25:58;66.45;;;51.17;;
54795;SDS011;40693;43.884;20.340;2023-12-28T09:28:31;63.50;;;48.35;;
54795;SDS011;40693;43.884;20.340;2023-12-28T09:30:57;81.93;;;60.10;;
54795;SDS011;40693;43.884;20.340;2023-12-28T09:33:25;74.43;;;55.33;;
54795;SDS011;40693;43.884;20.340;2023-12-28T09:35:51;65.93;;;50.58;;
54795;SDS011;40693;43.884;20.340;2023-12-28T09:38:18;51.38;;;40.33;;
54795;SDS011;40693;43.884;20.340;2023-12-28T09:40:44;95.78;;;75.60;;
54795;SDS011;40693;43.884;20.340;2023-12-28T09:43:23;51.92;;;36.33;;
54795;SDS011;40693;43.884;20.340;2023-12-28T09:45:50;44.30;;;37.05;;
54795;SDS011;40693;43.884;20.340;2023-12-28T09:48:17;44.45;;;36.63;;
54795;SDS011;40693;43.884;20.340;2023-12-28T09:50:44;65.75;;;53.75;;
54795;SDS011;40693;43.884;20.340;2023-12-28T09:53:11;240.82;;;205.95;;
54795;SDS011;40693;43.884;20.340;2023-12-28T09:55:37;249.00;;;221.32;;
54795;SDS011;40693;43.884;20.340;2023-12-28T09:58:03;164.73;;;137.57;;
54795;SDS011;40693;43.884;20.340;2023-12-28T10:00:31;248.80;;;212.27;;
54795;SDS011;40693;43.884;20.340;2023-12-28T10:02:57;128.38;;;106.18;;
54795;SDS011;40693;43.884;20.340;2023-12-28T10:05:23;73.38;;;59.38;;
54795;SDS011;40693;43.884;20.340;2023-12-28T10:07:49;66.43;;;56.25;;
54795;SDS011;40693;43.884;20.340;2023-12-28T10:10:15;65.70;;;53.72;;
54795;SDS011;40693;43.884;20.340;2023-12-28T10:12:42;59.53;;;49.65;;
54795;SDS011;40693;43.884;20.340;2023-12-28T10:15:08;72.13;;;60.60;;
54795;SDS011;40693;43.884;20.340;2023-12-28T10:17:35;75.20;;;62.90;;
54795;SDS011;40693;43.884;20.340;2023-12-28T10:20:04;174.43;;;143.35;;
54795;SDS011;40693;43.884;20.340;2023-12-28T10:22:33;65.00;;;55.13;;
54795;SDS011;40693;43.884;20.340;2023-12-28T10:24:59;102.65;;;80.03;;
54795;SDS011;40693;43.884;20.340;2023-12-28T10:27:27;222.60;;;172.95;;
54795;SDS011;40693;43.884;20.340;2023-12-28T10:29:54;136.18;;;105.00;;
54795;SDS011;40693;43.884;20.340;2023-12-28T10:32:21;296.20;;;228.52;;
54795;SDS011;40693;43.884;20.340;2023-12-28T10:34:53;97.22;;;80.40;;
54795;SDS011;40693;43.884;20.340;2023-12-28T10:37:19;101.53;;;83.35;;
54795;SDS011;40693;43.884;20.340;2023-12-28T10:39:47;78.28;;;63.72;;
54795;SDS011;40693;43.884;20.340;2023-12-28T10:42:16;64.68;;;52.72;;
54795;SDS011;40693;43.884;20.340;2023-12-28T10:44:52;92.05;;;81.90;;
54795;SDS011;40693;43.884;20.340;2023-12-28T10:47:21;124.65;;;99.75;;
54795;SDS011;40693;43.884;20.340;2023-12-28T10:49:51;135.93;;;110.85;;
54795;SDS011;40693;43.884;20.340;2023-12-28T10:52:19;105.85;;;76.88;;
54795;SDS011;40693;43.884;20.340;2023-12-28T10:54:54;186.82;;;152.90;;
54795;SDS011;40693;43.884;20.340;2023-12-28T10:58:14;141.80;;;120.47;;
54795;SDS011;40693;43.884;20.340;2023-12-28T11:00:41;160.13;;;132.93;;
54795;SDS011;40693;43.884;20.340;2023-12-28T11:03:12;50.53;;;42.40;;
54795;SDS011;40693;43.884;20.340;2023-12-28T11:05:43;75.85;;;58.53;;
54795;SDS011;40693;43.884;20.340;2023-12-28T11:08:12;159.75;;;130.50;;
54795;SDS011;40693;43.884;20.340;2023-12-28T11:10:40;66.47;;;55.03;;
54795;SDS011;40693;43.884;20.340;2023-12-28T11:13:06;103.68;;;70.50;;
54795;SDS011;40693;43.884;20.340;2023-12-28T11:15:34;83.30;;;64.13;;
54795;SDS011;40693;43.884;20.340;2023-12-28T11:18:03;79.57;;;63.60;;
54795;SDS011;40693;43.884;20.340;2023-12-28T11:20:29;142.57;;;113.13;;
54795;SDS011;40693;43.884;20.340;2023-12-28T11:22:57;106.35;;;79.70;;
54795;SDS011;40693;43.884;20.340;2023-12-28T11:25:36;89.55;;;67.32;;
54795;SDS011;40693;43.884;20.340;2023-12-28T11:28:08;81.25;;;61.30;;
54795;SDS011;40693;43.884;20.340;2023-12-28T11:30:38;52.35;;;41.80;;
54795;SDS011;40693;43.884;20.340;2023-12-28T11:33:06;54.10;;;42.33;;
54795;SDS011;40693;43.884;20.340;2023-12-28T11:35:36;81.45;;;59.17;;
54795;SDS011;40693;43.884;20.340;2023-12-28T11:38:04;51.50;;;40.35;;
54795;SDS011;40693;43.884;20.340;2023-12-28T11:40:44;58.00;;;44.30;;
54795;SDS011;40693;43.884;20.340;2023-12-28T11:43:18;57.35;;;45.30;;
54795;SDS011;40693;43.884;20.340;2023-12-28T11:45:51;60.47;;;45.15;;
54795;SDS011;40693;43.884;20.340;2023-12-28T11:50:54;64.65;;;46.53;;
54795;SDS011;40693;43.884;20.340;2023-12-28T11:53:22;60.63;;;45.65;;
54795;SDS011;40693;43.884;20.340;2023-12-28T11:55:48;56.65;;;41.22;;
54795;SDS011;40693;43.884;20.340;2023-12-28T11:58:15;82.72;;;62.40;;
54795;SDS011;40693;43.884;20.340;2023-12-28T12:00:42;123.18;;;86.88;;
54795;SDS011;40693;43.884;20.340;2023-12-28T12:03:11;140.85;;;97.85;;
54795;SDS011;40693;43.884;20.340;2023-12-28T12:05:37;108.00;;;74.63;;
54795;SDS011;40693;43.884;20.340;2023-12-28T12:08:04;68.45;;;49.22;;
54795;SDS011;40693;43.884;20.340;2023-12-28T12:10:30;56.90;;;42.13;;
54795;SDS011;40693;43.884;20.340;2023-12-28T12:12:57;74.78;;;50.20;;
54795;SDS011;40693;43.884;20.340;2023-12-28T12:15:23;237.82;;;178.40;;
54795;SDS011;40693;43.884;20.340;2023-12-28T12:17:48;112.28;;;84.10;;
54795;SDS011;40693;43.884;20.340;2023-12-28T12:20:15;53.28;;;39.40;;
54795;SDS011;40693;43.884;20.340;2023-12-28T12:22:41;51.75;;;41.33;;
54795;SDS011;40693;43.884;20.340;2023-12-28T12:25:06;74.72;;;52.83;;
54795;SDS011;40693;43.884;20.340;2023-12-28T12:27:34;57.97;;;42.28;;
54795;SDS011;40693;43.884;20.340;2023-12-28T12:30:01;64.03;;;46.47;;
54795;SDS011;40693;43.884;20.340;2023-12-28T12:32:28;74.28;;;51.95;;
54795;SDS011;40693;43.884;20.340;2023-12-28T12:34:54;74.80;;;51.08;;
54795;SDS011;40693;43.884;20.340;2023-12-28T12:37:21;60.25;;;44.63;;
54795;SDS011;40693;43.884;20.340;2023-12-28T12:39:47;55.33;;;38.17;;
54795;SDS011;40693;43.884;20.340;2023-12-28T12:42:13;49.55;;;34.67;;
54795;SDS011;40693;43.884;20.340;2023-12-28T12:44:39;49.83;;;34.15;;
54795;SDS011;40693;43.884;20.340;2023-12-28T12:47:05;48.08;;;35.08;;
54795;SDS011;40693;43.884;20.340;2023-12-28T12:49:32;48.42;;;34.38;;
54795;SDS011;40693;43.884;20.340;2023-12-28T12:51:58;50.42;;;36.70;;
54795;SDS011;40693;43.884;20.340;2023-12-28T12:54:24;54.33;;;40.00;;
54795;SDS011;40693;43.884;20.340;2023-12-28T12:56:51;58.42;;;44.70;;
54795;SDS011;40693;43.884;20.340;2023-12-28T12:59:17;71.40;;;45.85;;
54795;SDS011;40693;43.884;20.340;2023-12-28T13:01:43;44.83;;;33.30;;
54795;SDS011;40693;43.884;20.340;2023-12-28T13:04:10;44.55;;;32.33;;
54795;SDS011;40693;43.884;20.340;2023-12-28T13:06:37;46.47;;;33.78;;
54795;SDS011;40693;43.884;20.340;2023-12-28T13:09:03;62.42;;;42.72;;
54795;SDS011;40693;43.884;20.340;2023-12-28T13:11:32;90.40;;;60.35;;
54795;SDS011;40693;43.884;20.340;2023-12-28T13:14:01;78.05;;;55.35;;
54795;SDS011;40693;43.884;20.340;2023-12-28T13:16:27;66.00;;;47.53;;
54795;SDS011;40693;43.884;20.340;2023-12-28T13:18:53;77.38;;;53.55;;
54795;SDS011;40693;43.884;20.340;2023-12-28T13:21:19;62.47;;;46.95;;
54795;SDS011;40693;43.884;20.340;2023-12-28T13:23:44;58.28;;;34.92;;
54795;SDS011;40693;43.884;20.340;2023-12-28T13:26:10;45.70;;;31.23;;
54795;SDS011;40693;43.884;20.340;2023-12-28T13:28:36;114.78;;;80.53;;
54795;SDS011;40693;43.884;20.340;2023-12-28T13:31:01;55.25;;;39.10;;
54795;SDS011;40693;43.884;20.340;2023-12-28T13:33:27;94.10;;;63.05;;
54795;SDS011;40693;43.884;20.340;2023-12-28T13:35:54;61.78;;;42.92;;
54795;SDS011;40693;43.884;20.340;2023-12-28T13:38:20;62.75;;;42.38;;
54795;SDS011;40693;43.884;20.340;2023-12-28T13:40:46;61.30;;;43.75;;
54795;SDS011;40693;43.884;20.340;2023-12-28T13:43:12;78.82;;;55.63;;
54795;SDS011;40693;43.884;20.340;2023-12-28T13:45:38;87.82;;;63.72;;
54795;SDS011;40693;43.884;20.340;2023-12-28T13:48:03;126.82;;;89.85;;
54795;SDS011;40693;43.884;20.340;2023-12-28T13:50:30;102.82;;;70.70;;
54795;SDS011;40693;43.884;20.340;2023-12-28T13:52:56;64.55;;;43.63;;
54795;SDS011;40693;43.884;20.340;2023-12-28T13:55:22;89.95;;;62.38;;
54795;SDS011;40693;43.884;20.340;2023-12-28T13:57:48;55.50;;;35.75;;
54795;SDS011;40693;43.884;20.340;2023-12-28T14:00:14;61.35;;;45.63;;